createdAt,value
2022-12-25T00:00:23.238Z,57.53
2022-12-25T00:02:50.274Z,58.03
2022-12-25T00:05:17.182Z,45.92
2022-12-25T00:07:44.005Z,54.03
2022-12-25T00:10:11.643Z,59.10
2022-12-25T00:12:38.287Z,40.90
2022-12-25T00:15:05.691Z,56.75
2022-12-25T00:17:32.400Z,69.63
2022-12-25T00:19:59.182Z,88.53
2022-12-25T00:22:25.831Z,42.75
2022-12-25T00:24:52.611Z,42.08
2022-12-25T00:27:19.464Z,102.68
2022-12-25T00:29:46.112Z,59.00
2022-12-25T00:32:22.187Z,57.25
2022-12-25T00:34:54.733Z,76.70
2022-12-25T00:37:24.642Z,56.75
2022-12-25T00:39:51.398Z,73.85
2022-12-25T00:42:21.030Z,57.80
2022-12-25T00:44:49.236Z,42.35
2022-12-25T00:47:16.426Z,56.80
2022-12-25T00:49:43.502Z,61.38
2022-12-25T00:52:10.834Z,78.70
2022-12-25T00:54:38.060Z,60.08
2022-12-25T00:57:08.747Z,53.88
2022-12-25T00:59:35.758Z,89.00
2022-12-25T01:02:22.585Z,82.05
2022-12-25T01:04:53.861Z,68.97
2022-12-25T01:07:21.307Z,108.65
2022-12-25T01:10:03.267Z,87.40
2022-12-25T01:12:30.701Z,50.13
2022-12-25T01:14:57.835Z,46.47
2022-12-25T01:17:24.743Z,73.07
2022-12-25T01:19:51.494Z,79.70
2022-12-25T01:22:18.314Z,74.93
2022-12-25T01:24:48.614Z,70.40
2022-12-25T01:27:15.749Z,65.05
2022-12-25T01:29:42.930Z,52.13
2022-12-25T01:32:09.999Z,48.22
2022-12-25T01:34:38.359Z,39.30
2022-12-25T01:37:05.148Z,39.97
2022-12-25T01:39:32.906Z,41.17
2022-12-25T01:41:59.948Z,47.13
2022-12-25T01:44:36.169Z,45.60
2022-12-25T01:47:03.905Z,47.53
2022-12-25T01:49:32.400Z,37.15
2022-12-25T01:52:01.255Z,29.55
2022-12-25T01:54:43.570Z,31.88
2022-12-25T01:57:33.463Z,36.00
2022-12-25T02:00:09.749Z,41.80
2022-12-25T02:02:37.503Z,35.00
2022-12-25T02:05:10.695Z,34.40
2022-12-25T02:07:38.068Z,38.30
2022-12-25T02:12:50.394Z,50.17
2022-12-25T02:15:26.732Z,63.03
2022-12-25T02:18:10.306Z,74.60
2022-12-25T02:20:46.227Z,58.45
2022-12-25T02:23:15.901Z,58.13
2022-12-25T02:25:43.707Z,87.07
2022-12-25T02:28:13.286Z,84.18
2022-12-25T02:30:45.205Z,64.68
2022-12-25T02:33:29.729Z,58.70
2022-12-25T02:35:57.569Z,54.60
2022-12-25T02:38:34.306Z,58.58
2022-12-25T02:41:06.741Z,56.22
2022-12-25T02:43:52.446Z,44.03
2022-12-25T02:46:34.749Z,46.45
2022-12-25T02:49:17.748Z,36.67
2022-12-25T02:52:03.900Z,35.42
2022-12-25T02:54:56.064Z,32.38
2022-12-25T02:57:39.299Z,30.77
2022-12-25T03:00:21.100Z,26.42
2022-12-25T03:09:24.041Z,28.83
2022-12-25T03:11:54.659Z,29.02
2022-12-25T03:14:35.669Z,24.90
2022-12-25T03:17:02.945Z,26.30
2022-12-25T03:19:47.063Z,27.77
2022-12-25T03:22:47.991Z,28.40
2022-12-25T03:28:33.597Z,25.02
2022-12-25T03:31:14.795Z,28.02
2022-12-25T03:34:09.267Z,33.05
2022-12-25T03:36:48.528Z,31.65
2022-12-25T03:39:42.707Z,33.15
2022-12-25T03:42:25.194Z,33.05
2022-12-25T03:45:10.545Z,25.77
2022-12-25T03:48:02.637Z,25.58
2022-12-25T03:50:57.150Z,26.65
2022-12-25T03:53:42.620Z,30.77
2022-12-25T03:56:23.654Z,33.97
2022-12-25T03:59:05.003Z,39.35
2022-12-25T04:01:45.609Z,32.03
2022-12-25T04:04:26.233Z,31.45
2022-12-25T04:07:07.086Z,32.38
2022-12-25T04:09:50.845Z,39.35
2022-12-25T04:12:31.685Z,41.20
2022-12-25T04:15:12.272Z,32.00
2022-12-25T04:17:49.956Z,47.45
2022-12-25T04:20:30.632Z,36.13
2022-12-25T04:23:11.207Z,35.85
2022-12-25T04:25:51.990Z,35.65
2022-12-25T04:28:32.804Z,37.47
2022-12-25T04:31:20.723Z,36.92
2022-12-25T04:34:01.653Z,37.75
2022-12-25T04:36:34.113Z,42.80
2022-12-25T04:39:01.257Z,42.15
2022-12-25T04:41:37.301Z,29.00
2022-12-25T04:44:04.122Z,40.40
2022-12-25T04:46:31.056Z,31.20
2022-12-25T04:48:57.794Z,31.73
2022-12-25T04:51:28.002Z,28.90
2022-12-25T04:53:55.173Z,32.40
2022-12-25T04:56:22.576Z,32.42
2022-12-25T04:58:58.154Z,30.65
2022-12-25T05:01:25.163Z,29.05
2022-12-25T05:03:52.590Z,27.75
2022-12-25T05:06:19.363Z,31.83
2022-12-25T05:11:29.318Z,26.27
2022-12-25T05:13:57.144Z,26.80
2022-12-25T05:16:24.839Z,24.30
2022-12-25T05:18:52.163Z,25.33
2022-12-25T05:21:19.639Z,23.38
2022-12-25T05:23:49.400Z,23.58
2022-12-25T05:26:17.779Z,23.55
2022-12-25T05:28:45.126Z,23.30
2022-12-25T05:31:21.192Z,29.23
2022-12-25T05:33:51.699Z,27.50
2022-12-25T05:36:41.893Z,23.30
2022-12-25T05:39:09.201Z,21.13
2022-12-25T05:41:35.908Z,25.98
2022-12-25T05:44:02.832Z,30.27
2022-12-25T05:46:29.918Z,23.42
2022-12-25T05:48:59.980Z,24.08
2022-12-25T05:51:26.791Z,26.88
2022-12-25T05:53:54.009Z,24.95
2022-12-25T05:56:20.975Z,23.92
2022-12-25T05:58:47.708Z,24.33
2022-12-25T06:01:16.460Z,21.40
2022-12-25T06:03:43.615Z,23.17
2022-12-25T06:06:13.461Z,24.95
2022-12-25T06:08:40.659Z,22.95
2022-12-25T06:11:08.295Z,24.05
2022-12-25T06:13:35.456Z,23.95
2022-12-25T06:16:07.074Z,22.15
2022-12-25T06:18:37.794Z,26.98
2022-12-25T06:21:09.445Z,29.38
2022-12-25T06:23:36.915Z,26.98
2022-12-25T06:26:05.562Z,28.23
2022-12-25T06:28:32.249Z,26.80
2022-12-25T06:30:59.342Z,23.65
2022-12-25T06:33:26.132Z,33.85
2022-12-25T06:35:53.075Z,26.33
2022-12-25T06:38:22.460Z,21.08
2022-12-25T06:40:52.155Z,25.45
2022-12-25T06:43:19.146Z,31.88
2022-12-25T06:45:47.845Z,37.97
2022-12-25T06:48:14.715Z,30.58
2022-12-25T06:53:37.274Z,27.42
2022-12-25T06:56:15.839Z,24.55
2022-12-25T06:58:43.986Z,25.65
2022-12-25T07:01:15.573Z,21.88
2022-12-25T07:03:43.521Z,27.52
2022-12-25T07:06:10.407Z,28.92
2022-12-25T07:08:37.075Z,32.72
2022-12-25T07:11:04.028Z,44.00
2022-12-25T07:13:31.067Z,41.10
2022-12-25T07:15:58.507Z,46.97
2022-12-25T07:18:28.392Z,62.80
2022-12-25T07:21:01.064Z,111.22
2022-12-25T07:23:27.983Z,78.38
2022-12-25T07:25:58.546Z,39.95
2022-12-25T07:28:25.860Z,52.53
2022-12-25T07:30:52.694Z,91.53
2022-12-25T07:33:19.549Z,94.30
2022-12-25T07:35:46.358Z,66.10
2022-12-25T07:38:13.293Z,62.75
2022-12-25T07:40:40.515Z,78.78
2022-12-25T07:43:07.584Z,58.72
2022-12-25T07:45:34.298Z,46.22
2022-12-25T07:48:05.140Z,53.13
2022-12-25T07:50:32.656Z,43.30
2022-12-25T07:52:59.561Z,31.48
2022-12-25T07:55:26.815Z,41.38
2022-12-25T07:57:54.079Z,36.20
2022-12-25T08:00:21.025Z,47.10
2022-12-25T08:02:51.000Z,50.05
2022-12-25T08:05:18.793Z,47.33
2022-12-25T08:07:45.387Z,53.40
2022-12-25T08:10:12.378Z,37.25
2022-12-25T08:12:43.176Z,27.60
2022-12-25T08:15:10.254Z,27.52
2022-12-25T08:17:37.199Z,29.90
2022-12-25T08:20:04.302Z,26.05
2022-12-25T08:22:31.422Z,24.35
2022-12-25T08:24:58.203Z,29.25
2022-12-25T08:27:28.513Z,25.92
2022-12-25T08:30:04.584Z,25.65
2022-12-25T08:32:34.590Z,27.52
2022-12-25T08:35:01.718Z,25.92
2022-12-25T08:37:40.998Z,24.98
2022-12-25T08:40:11.323Z,32.08
2022-12-25T08:42:41.578Z,28.90
2022-12-25T08:45:08.635Z,39.08
2022-12-25T08:47:36.888Z,42.63
2022-12-25T08:50:04.649Z,46.75
2022-12-25T08:52:54.118Z,42.28
2022-12-25T08:55:30.462Z,44.45
2022-12-25T08:57:59.011Z,33.38
2022-12-25T09:00:25.760Z,39.97
2022-12-25T09:02:53.366Z,33.63
2022-12-25T09:05:20.428Z,37.58
2022-12-25T09:07:47.463Z,45.80
2022-12-25T09:10:20.200Z,39.05
2022-12-25T09:12:47.096Z,36.90
2022-12-25T09:15:13.778Z,31.05
2022-12-25T09:17:40.381Z,37.05
2022-12-25T09:20:07.672Z,36.42
2022-12-25T09:22:34.854Z,35.95
2022-12-25T09:25:01.562Z,40.55
2022-12-25T09:27:28.390Z,52.10
2022-12-25T09:29:55.230Z,38.47
2022-12-25T09:32:21.907Z,38.80
2022-12-25T09:34:48.726Z,41.05
2022-12-25T09:37:15.451Z,38.53
2022-12-25T09:39:46.485Z,38.35
2022-12-25T09:42:24.426Z,39.83
2022-12-25T09:44:56.421Z,45.08
2022-12-25T09:47:32.891Z,48.45
2022-12-25T09:50:07.615Z,52.72
2022-12-25T09:52:47.488Z,57.97
2022-12-25T09:55:20.692Z,59.05
2022-12-25T09:57:52.649Z,40.38
2022-12-25T10:00:21.183Z,49.67
2022-12-25T10:02:53.910Z,43.50
2022-12-25T10:05:27.798Z,38.13
2022-12-25T10:08:10.957Z,36.42
2022-12-25T10:10:40.592Z,29.92
2022-12-25T10:13:21.220Z,30.27
2022-12-25T10:16:08.644Z,38.10
2022-12-25T10:18:50.472Z,42.78
2022-12-25T10:21:22.430Z,36.88
2022-12-25T10:23:53.430Z,33.53
2022-12-25T10:26:21.664Z,59.28
2022-12-25T10:28:58.031Z,88.07
2022-12-25T10:31:27.414Z,170.13
2022-12-25T10:33:54.947Z,58.70
2022-12-25T10:36:23.245Z,70.43
2022-12-25T10:38:50.623Z,72.85
2022-12-25T10:41:23.205Z,61.95
2022-12-25T10:43:51.743Z,39.75
2022-12-25T10:46:19.649Z,53.97
2022-12-25T10:48:49.566Z,54.45
2022-12-25T10:51:48.554Z,83.30
2022-12-25T10:54:21.459Z,42.63
2022-12-25T10:56:58.567Z,59.63
2022-12-25T10:59:29.266Z,57.03
2022-12-25T11:02:04.459Z,50.22
2022-12-25T11:04:35.366Z,65.72
2022-12-25T11:07:05.484Z,75.38
2022-12-25T11:09:32.663Z,85.68
2022-12-25T11:12:00.284Z,66.07
2022-12-25T11:14:28.618Z,47.75
2022-12-25T11:16:55.623Z,25.92
2022-12-25T11:19:30.069Z,37.40
2022-12-25T11:21:58.309Z,39.42
2022-12-25T11:24:33.728Z,27.58
2022-12-25T11:27:01.598Z,27.98
2022-12-25T11:29:35.447Z,28.98
2022-12-25T11:32:02.875Z,31.93
2022-12-25T11:34:38.673Z,37.55
2022-12-25T11:37:11.711Z,25.50
2022-12-25T11:39:40.337Z,69.68
2022-12-25T11:42:21.746Z,50.13
2022-12-25T11:45:03.101Z,25.70
2022-12-25T11:47:44.202Z,44.65
2022-12-25T11:50:20.526Z,34.22
2022-12-25T11:52:47.588Z,26.88
2022-12-25T11:55:22.431Z,25.00
2022-12-25T11:57:51.892Z,21.80
2022-12-25T12:00:19.255Z,24.45
2022-12-25T12:03:00.059Z,25.77
2022-12-25T12:05:29.776Z,37.63
2022-12-25T12:07:58.789Z,32.03
2022-12-25T12:10:35.770Z,34.80
2022-12-25T12:13:05.491Z,25.73
2022-12-25T12:15:47.837Z,30.92
2022-12-25T12:18:22.772Z,30.65
2022-12-25T12:21:03.403Z,34.92
2022-12-25T12:23:31.370Z,42.47
2022-12-25T12:25:58.433Z,43.47
2022-12-25T12:28:28.171Z,54.53
2022-12-25T12:31:05.470Z,44.75
2022-12-25T12:33:43.212Z,28.40
2022-12-25T12:36:13.119Z,24.45
2022-12-25T12:38:41.390Z,28.77
2022-12-25T12:41:09.273Z,35.35
2022-12-25T12:43:50.635Z,31.20
2022-12-25T12:46:27.905Z,31.52
2022-12-25T12:49:08.711Z,32.50
2022-12-25T12:51:43.968Z,45.72
2022-12-25T12:54:30.763Z,38.90
2022-12-25T12:57:07.815Z,40.58
2022-12-25T12:59:47.178Z,37.13
2022-12-25T13:02:20.487Z,43.80
2022-12-25T13:05:01.716Z,62.47
2022-12-25T13:07:48.761Z,44.42
2022-12-25T13:10:23.292Z,109.78
2022-12-25T13:12:54.444Z,75.38
2022-12-25T13:15:26.461Z,104.75
2022-12-25T13:18:13.260Z,72.35
2022-12-25T13:20:45.080Z,81.88
2022-12-25T13:23:25.724Z,70.60
2022-12-25T13:26:03.080Z,60.50
2022-12-25T13:28:34.004Z,37.17
2022-12-25T13:31:15.235Z,44.65
2022-12-25T13:33:46.382Z,44.47
2022-12-25T13:38:58.520Z,36.05
2022-12-25T13:41:40.931Z,35.63
2022-12-25T13:44:14.393Z,75.95
2022-12-25T13:46:41.274Z,36.40
2022-12-25T13:49:27.799Z,45.55
2022-12-25T13:52:11.415Z,49.38
2022-12-25T13:54:38.145Z,62.65
2022-12-25T13:57:10.828Z,115.43
2022-12-25T13:59:37.952Z,78.78
2022-12-25T14:02:18.310Z,110.50
2022-12-25T14:07:31.683Z,74.15
2022-12-25T14:10:02.991Z,85.13
2022-12-25T14:12:30.654Z,72.55
2022-12-25T14:14:58.547Z,57.88
2022-12-25T14:17:37.657Z,76.78
2022-12-25T14:20:08.557Z,91.80
2022-12-25T14:22:38.536Z,211.82
2022-12-25T14:28:07.055Z,150.48
2022-12-25T14:30:37.764Z,157.43
2022-12-25T14:33:04.962Z,129.77
2022-12-25T14:35:43.978Z,183.57
2022-12-25T14:38:17.650Z,182.35
2022-12-25T14:41:26.267Z,169.40
2022-12-25T14:43:58.191Z,199.40
2022-12-25T14:47:20.008Z,219.32
2022-12-25T14:55:30.240Z,136.15
2022-12-25T14:57:59.171Z,156.25
2022-12-25T15:00:27.938Z,149.13
2022-12-25T15:02:56.373Z,144.30
2022-12-25T15:05:28.956Z,174.52
2022-12-25T15:08:12.861Z,144.35
2022-12-25T15:11:01.696Z,184.02
2022-12-25T15:13:30.598Z,219.35
2022-12-25T15:16:00.430Z,208.60
2022-12-25T15:18:30.654Z,229.70
2022-12-25T15:21:01.392Z,239.60
2022-12-25T15:23:28.764Z,241.65
2022-12-25T15:25:55.828Z,230.55
2022-12-25T15:28:22.870Z,226.27
2022-12-25T15:30:50.310Z,241.43
2022-12-25T15:33:18.479Z,330.67
2022-12-25T15:35:46.260Z,307.65
2022-12-25T15:38:16.079Z,317.38
2022-12-25T15:40:43.311Z,330.88
2022-12-25T15:43:38.956Z,355.48
2022-12-25T15:46:12.161Z,371.70
2022-12-25T15:48:39.481Z,375.23
2022-12-25T15:51:06.397Z,341.17
2022-12-25T15:53:33.578Z,350.00
2022-12-25T15:56:05.164Z,354.40
2022-12-25T15:58:32.237Z,338.58
2022-12-25T16:01:05.078Z,330.20
2022-12-25T16:03:32.320Z,348.08
2022-12-25T16:05:59.882Z,347.92
2022-12-25T16:08:29.438Z,318.20
2022-12-25T16:10:56.225Z,357.13
2022-12-25T16:13:35.945Z,362.27
2022-12-25T16:16:04.071Z,368.75
2022-12-25T16:18:31.529Z,316.60
2022-12-25T16:21:02.088Z,258.33
2022-12-25T16:23:29.793Z,214.85
2022-12-25T16:25:56.893Z,193.07
2022-12-25T16:28:24.132Z,158.07
2022-12-25T16:30:51.523Z,149.70
2022-12-25T16:33:18.647Z,165.13
2022-12-25T16:35:54.923Z,201.32
2022-12-25T16:38:21.848Z,196.57
2022-12-25T16:40:56.001Z,173.68
2022-12-25T16:43:24.357Z,146.32
2022-12-25T16:45:51.621Z,151.43
2022-12-25T16:48:19.027Z,132.95
2022-12-25T16:50:46.116Z,137.30
2022-12-25T16:53:12.949Z,131.35
2022-12-25T16:55:40.877Z,174.48
2022-12-25T16:58:17.007Z,158.00
2022-12-25T17:00:49.241Z,154.55
2022-12-25T17:03:17.817Z,127.50
2022-12-25T17:05:44.776Z,145.55
2022-12-25T17:08:11.750Z,137.50
2022-12-25T17:10:39.069Z,136.00
2022-12-25T17:13:08.064Z,136.82
2022-12-25T17:15:35.576Z,128.65
2022-12-25T17:18:02.392Z,123.78
2022-12-25T17:20:29.512Z,135.48
2022-12-25T17:22:57.900Z,127.05
2022-12-25T17:25:24.702Z,130.02
2022-12-25T17:27:54.315Z,122.88
2022-12-25T17:30:20.929Z,123.55
2022-12-25T17:33:03.258Z,126.28
2022-12-25T17:35:30.130Z,135.27
2022-12-25T17:37:57.333Z,142.63
2022-12-25T17:40:42.956Z,135.77
2022-12-25T17:43:10.468Z,116.40
2022-12-25T17:45:46.225Z,115.72
2022-12-25T17:48:13.135Z,112.03
2022-12-25T17:50:41.651Z,111.47
2022-12-25T17:53:08.970Z,116.60
2022-12-25T17:55:38.295Z,110.53
2022-12-25T17:58:05.423Z,114.40
2022-12-25T18:00:34.197Z,119.15
2022-12-25T18:03:05.774Z,121.15
2022-12-25T18:05:41.109Z,116.32
2022-12-25T18:08:08.047Z,229.02
2022-12-25T18:10:41.770Z,149.15
2022-12-25T18:13:11.379Z,107.80
2022-12-25T18:15:43.071Z,110.95
2022-12-25T18:18:19.353Z,79.47
2022-12-25T18:20:51.803Z,70.30
2022-12-25T18:23:18.525Z,72.50
2022-12-25T18:25:45.288Z,60.20
2022-12-25T18:28:21.524Z,62.55
2022-12-25T18:30:48.644Z,69.55
2022-12-25T18:33:15.342Z,78.80
2022-12-25T18:35:43.390Z,55.05
2022-12-25T18:38:11.451Z,68.13
2022-12-25T18:40:45.016Z,64.13
2022-12-25T18:43:11.925Z,55.72
2022-12-25T18:45:39.000Z,62.33
2022-12-25T18:48:06.613Z,64.22
2022-12-25T18:50:34.184Z,59.67
2022-12-25T18:53:03.946Z,75.93
2022-12-25T18:55:30.903Z,73.18
2022-12-25T18:57:58.323Z,76.03
2022-12-25T19:00:25.521Z,65.53
2022-12-25T19:02:56.133Z,70.57
2022-12-25T19:05:23.884Z,57.17
2022-12-25T19:07:50.843Z,59.70
2022-12-25T19:10:17.979Z,52.13
2022-12-25T19:12:44.788Z,53.60
2022-12-25T19:15:15.555Z,58.92
2022-12-25T19:17:42.304Z,58.92
2022-12-25T19:20:09.461Z,78.03
2022-12-25T19:22:38.151Z,96.65
2022-12-25T19:25:05.163Z,116.80
2022-12-25T19:27:33.614Z,80.07
2022-12-25T19:30:00.336Z,71.65
2022-12-25T19:32:27.477Z,127.55
2022-12-25T19:34:56.604Z,101.47
2022-12-25T19:37:23.334Z,93.00
2022-12-25T19:39:50.300Z,88.38
2022-12-25T19:42:23.105Z,90.32
2022-12-25T19:44:50.285Z,82.00
2022-12-25T19:47:20.705Z,86.07
2022-12-25T19:49:53.221Z,80.75
2022-12-25T19:52:20.853Z,85.32
2022-12-25T19:54:51.344Z,69.80
2022-12-25T19:57:18.482Z,56.42
2022-12-25T19:59:45.256Z,52.70
2022-12-25T20:02:12.905Z,46.50
2022-12-25T20:04:40.122Z,42.10
2022-12-25T20:07:07.421Z,46.83
2022-12-25T20:09:34.484Z,49.20
2022-12-25T20:12:07.231Z,55.05
2022-12-25T20:14:45.094Z,54.90
2022-12-25T20:17:16.228Z,64.05
2022-12-25T20:19:48.005Z,61.95
2022-12-25T20:22:23.012Z,65.20
2022-12-25T20:24:53.059Z,76.22
2022-12-25T20:27:19.828Z,59.28
2022-12-25T20:29:46.894Z,71.13
2022-12-25T20:32:14.060Z,66.20
2022-12-25T20:34:41.005Z,55.20
2022-12-25T20:37:07.823Z,64.22
2022-12-25T20:39:35.101Z,63.72
2022-12-25T20:42:01.974Z,69.32
2022-12-25T20:44:28.689Z,63.33
2022-12-25T20:46:59.695Z,75.85
2022-12-25T20:49:27.910Z,63.35
2022-12-25T20:51:57.377Z,111.07
2022-12-25T20:54:33.021Z,68.15
2022-12-25T20:56:59.850Z,97.55
2022-12-25T20:59:29.715Z,66.40
2022-12-25T21:01:59.494Z,63.65
2022-12-25T21:04:26.615Z,67.47
2022-12-25T21:06:53.273Z,64.75
2022-12-25T21:09:20.312Z,54.78
2022-12-25T21:11:47.169Z,84.88
2022-12-25T21:14:13.939Z,59.08
2022-12-25T21:16:40.890Z,62.88
2022-12-25T21:19:16.216Z,89.00
2022-12-25T21:21:44.153Z,61.17
2022-12-25T21:24:11.109Z,53.75
2022-12-25T21:26:46.102Z,59.03
2022-12-25T21:29:18.293Z,71.07
2022-12-25T21:32:28.209Z,68.53
2022-12-25T21:35:00.305Z,66.22
2022-12-25T21:42:43.259Z,66.10
2022-12-25T21:45:10.220Z,67.38
2022-12-25T21:48:01.866Z,67.13
2022-12-25T21:50:39.476Z,56.90
2022-12-25T21:53:06.761Z,55.00
2022-12-25T21:55:36.524Z,60.75
2022-12-25T21:58:03.256Z,65.32
2022-12-25T22:00:31.175Z,67.70
2022-12-25T22:03:53.128Z,60.90
2022-12-25T22:06:33.215Z,43.60
2022-12-25T22:09:00.124Z,53.92
2022-12-25T22:11:41.316Z,54.63
2022-12-25T22:14:52.740Z,53.22
2022-12-25T22:17:33.841Z,55.92
2022-12-25T22:20:01.246Z,51.97
2022-12-25T22:22:30.025Z,57.25
2022-12-25T22:24:58.130Z,59.35
2022-12-25T22:27:25.380Z,47.00
2022-12-25T22:29:52.401Z,49.92
2022-12-25T22:32:19.513Z,52.65
2022-12-25T22:34:46.224Z,55.33
2022-12-25T22:37:17.680Z,52.40
2022-12-25T22:39:45.042Z,51.03
2022-12-25T22:42:12.411Z,56.33
2022-12-25T22:44:39.450Z,44.17
2022-12-25T22:47:06.417Z,51.10
2022-12-25T22:49:36.223Z,49.05
2022-12-25T22:52:03.060Z,50.30
2022-12-25T22:54:31.320Z,49.53
2022-12-25T22:56:58.760Z,50.17
2022-12-25T22:59:28.222Z,49.22
2022-12-25T23:01:55.224Z,53.90
2022-12-25T23:04:22.157Z,56.67
2022-12-25T23:06:49.307Z,48.78
2022-12-25T23:09:23.988Z,53.05
2022-12-25T23:11:51.489Z,44.38
2022-12-25T23:14:32.295Z,50.05
2022-12-25T23:17:06.833Z,48.63
2022-12-25T23:19:49.843Z,42.40
2022-12-25T23:22:30.829Z,44.85
2022-12-25T23:25:03.177Z,48.30
2022-12-25T23:27:30.030Z,39.95
2022-12-25T23:29:56.795Z,45.17
2022-12-25T23:32:25.494Z,46.20
2022-12-25T23:34:52.929Z,44.22
2022-12-25T23:37:19.874Z,45.45
2022-12-25T23:39:47.372Z,43.67
2022-12-25T23:42:14.423Z,41.17
2022-12-25T23:44:41.162Z,44.03
2022-12-25T23:47:08.055Z,49.30
2022-12-25T23:49:35.377Z,39.92
2022-12-25T23:52:02.244Z,50.50
2022-12-25T23:54:30.151Z,50.22
2022-12-25T23:56:58.090Z,46.10
2022-12-25T23:59:25.459Z,45.90
